sensor_id;sensor_type;location;lat;lon;timestamp;temperature;humidity
33093;DHT22;19456;46.104;12.908;2022-12-10T00:00:37;8.50;99.90
33093;DHT22;19456;46.104;12.908;2022-12-10T00:03:03;8.50;99.90
33093;DHT22;19456;46.104;12.908;2022-12-10T00:05:29;8.50;99.90
33093;DHT22;19456;46.104;12.908;2022-12-10T00:07:56;8.60;99.90
33093;DHT22;19456;46.104;12.908;2022-12-10T00:10:21;8.50;99.90
33093;DHT22;19456;46.104;12.908;2022-12-10T00:12:47;8.50;99.90
33093;DHT22;19456;46.104;12.908;2022-12-10T00:15:12;8.50;99.90
33093;DHT22;19456;46.104;12.908;2022-12-10T00:17:38;8.40;99.90
33093;DHT22;19456;46.104;12.908;2022-12-10T00:20:03;8.20;99.90
33093;DHT22;19456;46.104;12.908;2022-12-10T00:22:29;8.20;99.90
33093;DHT22;19456;46.104;12.908;2022-12-10T00:24:55;8.30;99.90
33093;DHT22;19456;46.104;12.908;2022-12-10T00:27:20;8.30;99.90
33093;DHT22;19456;46.104;12.908;2022-12-10T00:29:46;8.30;99.90
33093;DHT22;19456;46.104;12.908;2022-12-10T00:32:11;8.40;99.90
33093;DHT22;19456;46.104;12.908;2022-12-10T00:34:37;8.40;99.90
33093;DHT22;19456;46.104;12.908;2022-12-10T00:37:02;8.30;99.90
33093;DHT22;19456;46.104;12.908;2022-12-10T00:39:28;8.30;99.90
33093;DHT22;19456;46.104;12.908;2022-12-10T00:41:54;8.20;99.90
33093;DHT22;19456;46.104;12.908;2022-12-10T00:44:19;8.10;99.90
33093;DHT22;19456;46.104;12.908;2022-12-10T00:46:45;8.10;99.90
33093;DHT22;19456;46.104;12.908;2022-12-10T00:49:10;8.20;99.90
33093;DHT22;19456;46.104;12.908;2022-12-10T00:51:36;8.20;99.90
33093;DHT22;19456;46.104;12.908;2022-12-10T00:54:02;8.30;99.90
33093;DHT22;19456;46.104;12.908;2022-12-10T00:56:28;8.30;99.90
33093;DHT22;19456;46.104;12.908;2022-12-10T00:58:54;8.30;99.90
33093;DHT22;19456;46.104;12.908;2022-12-10T01:01:21;8.40;99.90
33093;DHT22;19456;46.104;12.908;2022-12-10T01:03:47;8.40;99.90
33093;DHT22;19456;46.104;12.908;2022-12-10T01:06:14;8.40;99.90
33093;DHT22;19456;46.104;12.908;2022-12-10T01:08:41;8.30;99.90
33093;DHT22;19456;46.104;12.908;2022-12-10T01:11:07;8.40;99.90
33093;DHT22;19456;46.104;12.908;2022-12-10T01:13:32;8.40;99.90
33093;DHT22;19456;46.104;12.908;2022-12-10T01:16:00;8.30;99.90
33093;DHT22;19456;46.104;12.908;2022-12-10T01:18:25;8.40;99.90
33093;DHT22;19456;46.104;12.908;2022-12-10T01:20:51;8.40;99.90
33093;DHT22;19456;46.104;12.908;2022-12-10T01:23:16;8.30;99.90
33093;DHT22;19456;46.104;12.908;2022-12-10T01:25:42;8.30;99.90
33093;DHT22;19456;46.104;12.908;2022-12-10T01:28:07;8.30;99.90
33093;DHT22;19456;46.104;12.908;2022-12-10T01:30:36;8.30;99.90
33093;DHT22;19456;46.104;12.908;2022-12-10T01:33:01;8.30;99.90
33093;DHT22;19456;46.104;12.908;2022-12-10T01:35:27;8.40;99.90
33093;DHT22;19456;46.104;12.908;2022-12-10T01:37:52;8.40;99.90
33093;DHT22;19456;46.104;12.908;2022-12-10T01:40:18;8.40;99.90
33093;DHT22;19456;46.104;12.908;2022-12-10T01:42:44;8.30;99.90
33093;DHT22;19456;46.104;12.908;2022-12-10T01:45:10;8.40;99.90
33093;DHT22;19456;46.104;12.908;2022-12-10T01:47:36;8.40;99.90
33093;DHT22;19456;46.104;12.908;2022-12-10T01:50:02;8.40;99.90
33093;DHT22;19456;46.104;12.908;2022-12-10T01:52:28;8.30;99.90
33093;DHT22;19456;46.104;12.908;2022-12-10T01:54:53;8.30;99.90
33093;DHT22;19456;46.104;12.908;2022-12-10T01:57:23;8.40;99.90
33093;DHT22;19456;46.104;12.908;2022-12-10T01:59:51;8.40;99.90
33093;DHT22;19456;46.104;12.908;2022-12-10T02:07:36;8.40;99.90
33093;DHT22;19456;46.104;12.908;2022-12-10T02:12:49;8.50;99.90
33093;DHT22;19456;46.104;12.908;2022-12-10T02:15:18;8.50;99.90
33093;DHT22;19456;46.104;12.908;2022-12-10T02:20:30;8.50;99.90
33093;DHT22;19456;46.104;12.908;2022-12-10T02:22:58;8.50;99.90
33093;DHT22;19456;46.104;12.908;2022-12-10T02:25:28;8.50;99.90
33093;DHT22;19456;46.104;12.908;2022-12-10T02:28:05;8.40;99.90
33093;DHT22;19456;46.104;12.908;2022-12-10T02:30:32;8.30;99.90
33093;DHT22;19456;46.104;12.908;2022-12-10T02:32:58;8.30;99.90
33093;DHT22;19456;46.104;12.908;2022-12-10T02:35:26;8.30;99.90
33093;DHT22;19456;46.104;12.908;2022-12-10T02:37:56;8.30;99.90
33093;DHT22;19456;46.104;12.908;2022-12-10T02:40:24;8.30;99.90
33093;DHT22;19456;46.104;12.908;2022-12-10T02:42:51;8.40;99.90
33093;DHT22;19456;46.104;12.908;2022-12-10T02:45:17;8.50;99.90
33093;DHT22;19456;46.104;12.908;2022-12-10T02:47:43;8.40;99.90
33093;DHT22;19456;46.104;12.908;2022-12-10T02:50:10;8.50;99.90
33093;DHT22;19456;46.104;12.908;2022-12-10T02:52:36;8.40;99.90
33093;DHT22;19456;46.104;12.908;2022-12-10T02:55:02;8.30;99.90
33093;DHT22;19456;46.104;12.908;2022-12-10T03:00:07;8.30;99.90
33093;DHT22;19456;46.104;12.908;2022-12-10T03:05:01;8.50;99.90
33093;DHT22;19456;46.104;12.908;2022-12-10T03:07:34;8.50;99.90
33093;DHT22;19456;46.104;12.908;2022-12-10T03:10:02;8.50;99.90
33093;DHT22;19456;46.104;12.908;2022-12-10T03:12:29;8.50;99.90
33093;DHT22;19456;46.104;12.908;2022-12-10T03:15:00;8.50;99.90
33093;DHT22;19456;46.104;12.908;2022-12-10T03:17:27;8.40;99.90
33093;DHT22;19456;46.104;12.908;2022-12-10T03:19:54;8.40;99.90
33093;DHT22;19456;46.104;12.908;2022-12-10T03:22:20;8.40;99.90
33093;DHT22;19456;46.104;12.908;2022-12-10T03:24:46;8.40;99.90
33093;DHT22;19456;46.104;12.908;2022-12-10T03:27:12;8.40;99.90
33093;DHT22;19456;46.104;12.908;2022-12-10T03:29:42;8.50;99.90
33093;DHT22;19456;46.104;12.908;2022-12-10T03:32:09;8.50;99.90
33093;DHT22;19456;46.104;12.908;2022-12-10T03:34:36;8.50;99.90
33093;DHT22;19456;46.104;12.908;2022-12-10T03:37:02;8.60;99.90
33093;DHT22;19456;46.104;12.908;2022-12-10T03:39:28;8.60;99.90
33093;DHT22;19456;46.104;12.908;2022-12-10T03:41:54;8.40;99.90
33093;DHT22;19456;46.104;12.908;2022-12-10T03:44:26;8.30;99.90
33093;DHT22;19456;46.104;12.908;2022-12-10T03:46:52;8.30;99.90
33093;DHT22;19456;46.104;12.908;2022-12-10T03:49:18;8.40;99.90
33093;DHT22;19456;46.104;12.908;2022-12-10T03:51:43;8.50;99.90
33093;DHT22;19456;46.104;12.908;2022-12-10T03:54:09;8.50;99.90
33093;DHT22;19456;46.104;12.908;2022-12-10T03:56:34;8.40;99.90
33093;DHT22;19456;46.104;12.908;2022-12-10T03:59:00;8.40;99.90
33093;DHT22;19456;46.104;12.908;2022-12-10T04:01:25;8.40;99.90
33093;DHT22;19456;46.104;12.908;2022-12-10T04:03:51;8.40;99.90
33093;DHT22;19456;46.104;12.908;2022-12-10T04:06:18;8.30;99.90
33093;DHT22;19456;46.104;12.908;2022-12-10T04:08:44;8.20;99.90
33093;DHT22;19456;46.104;12.908;2022-12-10T04:11:10;8.20;99.90
33093;DHT22;19456;46.104;12.908;2022-12-10T04:13:36;8.30;99.90
33093;DHT22;19456;46.104;12.908;2022-12-10T04:16:20;8.30;99.90
33093;DHT22;19456;46.104;12.908;2022-12-10T04:18:52;8.40;99.90
33093;DHT22;19456;46.104;12.908;2022-12-10T04:21:17;8.40;99.90
33093;DHT22;19456;46.104;12.908;2022-12-10T04:24:02;8.50;99.90
33093;DHT22;19456;46.104;12.908;2022-12-10T04:26:46;8.30;99.90
33093;DHT22;19456;46.104;12.908;2022-12-10T04:29:24;8.30;99.90
33093;DHT22;19456;46.104;12.908;2022-12-10T04:31:50;8.30;99.90
33093;DHT22;19456;46.104;12.908;2022-12-10T04:34:16;8.30;99.90
33093;DHT22;19456;46.104;12.908;2022-12-10T04:36:41;8.40;99.90
33093;DHT22;19456;46.104;12.908;2022-12-10T04:39:07;8.40;99.90
33093;DHT22;19456;46.104;12.908;2022-12-10T04:41:33;8.50;99.90
33093;DHT22;19456;46.104;12.908;2022-12-10T04:43:58;8.50;99.90
33093;DHT22;19456;46.104;12.908;2022-12-10T04:46:24;8.50;99.90
33093;DHT22;19456;46.104;12.908;2022-12-10T04:48:49;8.50;99.90
33093;DHT22;19456;46.104;12.908;2022-12-10T04:51:15;8.50;99.90
33093;DHT22;19456;46.104;12.908;2022-12-10T04:53:40;8.40;99.90
33093;DHT22;19456;46.104;12.908;2022-12-10T04:56:06;8.30;99.90
33093;DHT22;19456;46.104;12.908;2022-12-10T04:58:32;8.30;99.90
33093;DHT22;19456;46.104;12.908;2022-12-10T05:01:04;8.20;99.90
33093;DHT22;19456;46.104;12.908;2022-12-10T05:03:30;8.10;99.90
33093;DHT22;19456;46.104;12.908;2022-12-10T05:06:00;8.10;99.90
33093;DHT22;19456;46.104;12.908;2022-12-10T05:08:25;8.00;99.90
33093;DHT22;19456;46.104;12.908;2022-12-10T05:10:51;8.00;99.90
33093;DHT22;19456;46.104;12.908;2022-12-10T05:13:16;7.90;99.90
33093;DHT22;19456;46.104;12.908;2022-12-10T05:15:42;7.80;99.90
33093;DHT22;19456;46.104;12.908;2022-12-10T05:18:07;7.80;99.90
33093;DHT22;19456;46.104;12.908;2022-12-10T05:20:33;7.80;99.90
33093;DHT22;19456;46.104;12.908;2022-12-10T05:22:58;7.90;99.90
33093;DHT22;19456;46.104;12.908;2022-12-10T05:25:42;7.90;99.90
33093;DHT22;19456;46.104;12.908;2022-12-10T05:28:21;8.10;99.90
33093;DHT22;19456;46.104;12.908;2022-12-10T05:30:46;8.20;99.90
33093;DHT22;19456;46.104;12.908;2022-12-10T05:33:12;8.20;99.90
33093;DHT22;19456;46.104;12.908;2022-12-10T05:35:37;8.20;99.90
33093;DHT22;19456;46.104;12.908;2022-12-10T05:38:03;8.20;99.90
33093;DHT22;19456;46.104;12.908;2022-12-10T05:40:28;8.20;99.90
33093;DHT22;19456;46.104;12.908;2022-12-10T05:42:54;8.30;99.90
33093;DHT22;19456;46.104;12.908;2022-12-10T05:45:20;8.40;99.90
33093;DHT22;19456;46.104;12.908;2022-12-10T05:47:46;8.50;99.90
33093;DHT22;19456;46.104;12.908;2022-12-10T05:50:11;8.50;99.90
33093;DHT22;19456;46.104;12.908;2022-12-10T05:52:37;8.50;99.90
33093;DHT22;19456;46.104;12.908;2022-12-10T05:55:02;8.50;99.90
33093;DHT22;19456;46.104;12.908;2022-12-10T05:57:28;8.40;99.90
33093;DHT22;19456;46.104;12.908;2022-12-10T05:59:53;8.50;99.90
33093;DHT22;19456;46.104;12.908;2022-12-10T06:02:19;8.50;99.90
33093;DHT22;19456;46.104;12.908;2022-12-10T06:04:44;8.60;99.90
33093;DHT22;19456;46.104;12.908;2022-12-10T06:07:10;8.60;99.90
33093;DHT22;19456;46.104;12.908;2022-12-10T06:09:35;8.60;99.90
33093;DHT22;19456;46.104;12.908;2022-12-10T06:12:01;8.70;99.90
33093;DHT22;19456;46.104;12.908;2022-12-10T06:14:26;8.70;99.90
33093;DHT22;19456;46.104;12.908;2022-12-10T06:16:52;8.70;99.90
33093;DHT22;19456;46.104;12.908;2022-12-10T06:19:17;8.70;99.90
33093;DHT22;19456;46.104;12.908;2022-12-10T06:21:43;8.70;99.90
33093;DHT22;19456;46.104;12.908;2022-12-10T06:24:09;8.50;99.90
33093;DHT22;19456;46.104;12.908;2022-12-10T06:26:34;8.50;99.90
33093;DHT22;19456;46.104;12.908;2022-12-10T06:29:00;8.40;99.90
33093;DHT22;19456;46.104;12.908;2022-12-10T06:31:25;8.40;99.90
33093;DHT22;19456;46.104;12.908;2022-12-10T06:33:51;8.30;99.90
33093;DHT22;19456;46.104;12.908;2022-12-10T06:36:18;8.30;99.90
33093;DHT22;19456;46.104;12.908;2022-12-10T06:38:43;8.30;99.90
33093;DHT22;19456;46.104;12.908;2022-12-10T06:41:10;8.40;99.90
33093;DHT22;19456;46.104;12.908;2022-12-10T06:43:37;8.40;99.90
33093;DHT22;19456;46.104;12.908;2022-12-10T06:46:04;8.40;99.90
33093;DHT22;19456;46.104;12.908;2022-12-10T06:48:30;8.40;99.90
33093;DHT22;19456;46.104;12.908;2022-12-10T06:50:56;8.40;99.90
33093;DHT22;19456;46.104;12.908;2022-12-10T06:53:21;8.40;99.90
33093;DHT22;19456;46.104;12.908;2022-12-10T06:55:47;8.50;99.90
33093;DHT22;19456;46.104;12.908;2022-12-10T06:58:12;8.60;99.90
33093;DHT22;19456;46.104;12.908;2022-12-10T07:00:38;8.70;99.90
33093;DHT22;19456;46.104;12.908;2022-12-10T07:03:05;8.70;99.90
33093;DHT22;19456;46.104;12.908;2022-12-10T07:05:31;8.80;99.90
33093;DHT22;19456;46.104;12.908;2022-12-10T07:07:57;8.90;99.90
33093;DHT22;19456;46.104;12.908;2022-12-10T07:10:22;8.90;99.90
33093;DHT22;19456;46.104;12.908;2022-12-10T07:12:48;8.90;99.90
33093;DHT22;19456;46.104;12.908;2022-12-10T07:15:14;8.90;99.90
33093;DHT22;19456;46.104;12.908;2022-12-10T07:17:39;8.90;99.90
33093;DHT22;19456;46.104;12.908;2022-12-10T07:20:05;9.00;99.90
33093;DHT22;19456;46.104;12.908;2022-12-10T07:22:31;9.00;99.90
33093;DHT22;19456;46.104;12.908;2022-12-10T07:24:56;8.80;99.90
33093;DHT22;19456;46.104;12.908;2022-12-10T07:27:22;8.80;99.90
33093;DHT22;19456;46.104;12.908;2022-12-10T07:29:47;8.80;99.90
33093;DHT22;19456;46.104;12.908;2022-12-10T07:32:13;8.70;99.90
33093;DHT22;19456;46.104;12.908;2022-12-10T07:34:39;8.70;99.90
33093;DHT22;19456;46.104;12.908;2022-12-10T07:37:06;8.80;99.90
33093;DHT22;19456;46.104;12.908;2022-12-10T07:39:32;8.80;99.90
33093;DHT22;19456;46.104;12.908;2022-12-10T07:41:57;8.80;99.90
33093;DHT22;19456;46.104;12.908;2022-12-10T07:44:23;8.80;99.90
33093;DHT22;19456;46.104;12.908;2022-12-10T07:46:50;8.90;99.90
33093;DHT22;19456;46.104;12.908;2022-12-10T07:49:16;9.00;99.90
33093;DHT22;19456;46.104;12.908;2022-12-10T07:51:45;9.10;99.90
33093;DHT22;19456;46.104;12.908;2022-12-10T07:54:11;9.10;99.90
33093;DHT22;19456;46.104;12.908;2022-12-10T07:56:37;9.20;99.90
33093;DHT22;19456;46.104;12.908;2022-12-10T07:59:02;9.30;99.90
33093;DHT22;19456;46.104;12.908;2022-12-10T08:01:29;9.40;99.90
33093;DHT22;19456;46.104;12.908;2022-12-10T08:03:55;9.40;99.90
33093;DHT22;19456;46.104;12.908;2022-12-10T08:06:21;9.50;99.90
33093;DHT22;19456;46.104;12.908;2022-12-10T08:08:47;9.50;99.90
33093;DHT22;19456;46.104;12.908;2022-12-10T08:11:13;9.50;99.90
33093;DHT22;19456;46.104;12.908;2022-12-10T08:13:39;9.40;99.90
33093;DHT22;19456;46.104;12.908;2022-12-10T08:16:06;9.40;99.90
33093;DHT22;19456;46.104;12.908;2022-12-10T08:18:32;9.40;99.90
33093;DHT22;19456;46.104;12.908;2022-12-10T08:21:01;9.30;99.90
33093;DHT22;19456;46.104;12.908;2022-12-10T08:23:28;9.30;99.90
33093;DHT22;19456;46.104;12.908;2022-12-10T08:25:53;9.40;99.90
33093;DHT22;19456;46.104;12.908;2022-12-10T08:28:19;9.40;99.90
33093;DHT22;19456;46.104;12.908;2022-12-10T08:30:47;9.50;99.90
33093;DHT22;19456;46.104;12.908;2022-12-10T08:33:13;9.60;99.90
33093;DHT22;19456;46.104;12.908;2022-12-10T08:35:38;9.60;99.90
33093;DHT22;19456;46.104;12.908;2022-12-10T08:38:04;9.70;99.90
33093;DHT22;19456;46.104;12.908;2022-12-10T08:40:29;9.70;99.90
33093;DHT22;19456;46.104;12.908;2022-12-10T08:42:55;9.60;99.90
33093;DHT22;19456;46.104;12.908;2022-12-10T08:45:20;9.70;99.90
33093;DHT22;19456;46.104;12.908;2022-12-10T08:47:46;9.80;99.90
33093;DHT22;19456;46.104;12.908;2022-12-10T08:50:12;9.90;99.90
33093;DHT22;19456;46.104;12.908;2022-12-10T08:52:37;10.00;99.90
33093;DHT22;19456;46.104;12.908;2022-12-10T08:55:03;10.10;99.90
33093;DHT22;19456;46.104;12.908;2022-12-10T08:57:30;10.00;99.90
33093;DHT22;19456;46.104;12.908;2022-12-10T08:59:55;10.10;99.90
33093;DHT22;19456;46.104;12.908;2022-12-10T09:02:21;10.20;99.90
33093;DHT22;19456;46.104;12.908;2022-12-10T09:04:46;10.20;99.90
33093;DHT22;19456;46.104;12.908;2022-12-10T09:07:15;10.30;99.90
33093;DHT22;19456;46.104;12.908;2022-12-10T09:09:40;10.30;99.90
33093;DHT22;19456;46.104;12.908;2022-12-10T09:12:06;10.30;99.90
33093;DHT22;19456;46.104;12.908;2022-12-10T09:14:31;10.30;99.90
33093;DHT22;19456;46.104;12.908;2022-12-10T09:16:57;10.30;99.90
33093;DHT22;19456;46.104;12.908;2022-12-10T09:19:23;10.30;99.90
33093;DHT22;19456;46.104;12.908;2022-12-10T09:21:48;10.20;99.90
33093;DHT22;19456;46.104;12.908;2022-12-10T09:24:14;10.20;99.90
33093;DHT22;19456;46.104;12.908;2022-12-10T09:26:40;10.10;99.90
33093;DHT22;19456;46.104;12.908;2022-12-10T09:29:05;9.90;99.90
33093;DHT22;19456;46.104;12.908;2022-12-10T09:31:31;9.80;99.90
33093;DHT22;19456;46.104;12.908;2022-12-10T09:33:56;9.80;99.90
33093;DHT22;19456;46.104;12.908;2022-12-10T09:36:22;9.70;99.90
33093;DHT22;19456;46.104;12.908;2022-12-10T09:38:48;9.70;99.90
33093;DHT22;19456;46.104;12.908;2022-12-10T09:46:13;9.90;99.90
33093;DHT22;19456;46.104;12.908;2022-12-10T09:51:31;9.90;99.90
33093;DHT22;19456;46.104;12.908;2022-12-10T09:54:04;9.90;99.90
33093;DHT22;19456;46.104;12.908;2022-12-10T09:56:37;10.20;99.90
33093;DHT22;19456;46.104;12.908;2022-12-10T09:59:36;10.40;99.90
33093;DHT22;19456;46.104;12.908;2022-12-10T10:04:36;10.80;99.90
33093;DHT22;19456;46.104;12.908;2022-12-10T10:07:01;10.70;99.90
33093;DHT22;19456;46.104;12.908;2022-12-10T10:09:29;10.50;99.90
33093;DHT22;19456;46.104;12.908;2022-12-10T10:11:55;10.50;99.90
33093;DHT22;19456;46.104;12.908;2022-12-10T10:14:27;10.50;99.90
33093;DHT22;19456;46.104;12.908;2022-12-10T10:16:55;10.60;99.90
33093;DHT22;19456;46.104;12.908;2022-12-10T10:19:27;10.40;99.90
33093;DHT22;19456;46.104;12.908;2022-12-10T10:21:53;10.40;99.90
33093;DHT22;19456;46.104;12.908;2022-12-10T10:24:20;10.30;99.90
33093;DHT22;19456;46.104;12.908;2022-12-10T10:26:47;10.20;99.90
33093;DHT22;19456;46.104;12.908;2022-12-10T10:29:13;10.20;99.90
33093;DHT22;19456;46.104;12.908;2022-12-10T10:31:41;10.20;99.90
33093;DHT22;19456;46.104;12.908;2022-12-10T10:34:17;10.20;99.90
33093;DHT22;19456;46.104;12.908;2022-12-10T10:36:45;10.30;99.90
33093;DHT22;19456;46.104;12.908;2022-12-10T10:39:33;10.30;99.90
33093;DHT22;19456;46.104;12.908;2022-12-10T10:41:59;10.30;99.90
33093;DHT22;19456;46.104;12.908;2022-12-10T10:44:36;10.30;99.90
33093;DHT22;19456;46.104;12.908;2022-12-10T10:47:02;10.30;99.90
33093;DHT22;19456;46.104;12.908;2022-12-10T10:49:30;10.20;99.90
33093;DHT22;19456;46.104;12.908;2022-12-10T10:52:11;10.30;99.90
33093;DHT22;19456;46.104;12.908;2022-12-10T10:54:39;10.30;99.90
33093;DHT22;19456;46.104;12.908;2022-12-10T10:57:09;10.40;99.90
33093;DHT22;19456;46.104;12.908;2022-12-10T10:59:36;10.50;99.90
33093;DHT22;19456;46.104;12.908;2022-12-10T11:07:00;10.60;99.90
33093;DHT22;19456;46.104;12.908;2022-12-10T11:09:30;10.70;99.90
33093;DHT22;19456;46.104;12.908;2022-12-10T11:12:02;10.70;99.90
33093;DHT22;19456;46.104;12.908;2022-12-10T11:14:40;10.80;99.90
33093;DHT22;19456;46.104;12.908;2022-12-10T11:19:35;10.80;99.90
33093;DHT22;19456;46.104;12.908;2022-12-10T11:22:20;10.80;99.90
33093;DHT22;19456;46.104;12.908;2022-12-10T11:24:47;10.80;99.90
33093;DHT22;19456;46.104;12.908;2022-12-10T11:27:18;10.80;99.90
33093;DHT22;19456;46.104;12.908;2022-12-10T11:32:30;10.80;99.90
33093;DHT22;19456;46.104;12.908;2022-12-10T11:37:47;10.80;99.90
33093;DHT22;19456;46.104;12.908;2022-12-10T11:45:33;10.90;99.90
33093;DHT22;19456;46.104;12.908;2022-12-10T11:50:47;10.70;99.90
33093;DHT22;19456;46.104;12.908;2022-12-10T12:05:47;10.60;99.90
33093;DHT22;19456;46.104;12.908;2022-12-10T12:08:28;10.70;99.90
33093;DHT22;19456;46.104;12.908;2022-12-10T12:11:04;10.70;99.90
33093;DHT22;19456;46.104;12.908;2022-12-10T12:13:34;10.80;99.90
33093;DHT22;19456;46.104;12.908;2022-12-10T12:16:09;10.90;99.90
33093;DHT22;19456;46.104;12.908;2022-12-10T12:18:42;10.90;99.90
33093;DHT22;19456;46.104;12.908;2022-12-10T12:21:09;11.00;99.90
33093;DHT22;19456;46.104;12.908;2022-12-10T12:26:15;10.90;99.90
33093;DHT22;19456;46.104;12.908;2022-12-10T12:28:47;10.90;99.90
33093;DHT22;19456;46.104;12.908;2022-12-10T12:31:15;10.90;99.90
33093;DHT22;19456;46.104;12.908;2022-12-10T12:33:43;11.00;99.90
33093;DHT22;19456;46.104;12.908;2022-12-10T12:36:19;11.00;99.90
33093;DHT22;19456;46.104;12.908;2022-12-10T12:38:56;11.10;99.90
33093;DHT22;19456;46.104;12.908;2022-12-10T12:46:40;11.20;99.90
33093;DHT22;19456;46.104;12.908;2022-12-10T12:49:24;11.20;99.90
33093;DHT22;19456;46.104;12.908;2022-12-10T12:52:02;11.10;99.90
33093;DHT22;19456;46.104;12.908;2022-12-10T12:54:31;11.20;99.90
33093;DHT22;19456;46.104;12.908;2022-12-10T12:57:07;11.20;99.90
33093;DHT22;19456;46.104;12.908;2022-12-10T13:04:44;11.30;99.90
33093;DHT22;19456;46.104;12.908;2022-12-10T13:09:42;11.30;99.90
33093;DHT22;19456;46.104;12.908;2022-12-10T13:17:37;11.50;99.90
33093;DHT22;19456;46.104;12.908;2022-12-10T13:41:33;11.70;99.90
33093;DHT22;19456;46.104;12.908;2022-12-10T13:49:30;11.70;99.90
33093;DHT22;19456;46.104;12.908;2022-12-10T14:02:25;11.50;99.90
33093;DHT22;19456;46.104;12.908;2022-12-10T14:07:40;11.40;99.90
33093;DHT22;19456;46.104;12.908;2022-12-10T14:10:12;11.40;99.90
33093;DHT22;19456;46.104;12.908;2022-12-10T14:12:39;11.30;99.90
33093;DHT22;19456;46.104;12.908;2022-12-10T14:15:24;11.30;99.90
33093;DHT22;19456;46.104;12.908;2022-12-10T14:17:51;11.30;99.90
33093;DHT22;19456;46.104;12.908;2022-12-10T14:20:19;11.30;99.90
33093;DHT22;19456;46.104;12.908;2022-12-10T14:22:47;11.30;99.90
33093;DHT22;19456;46.104;12.908;2022-12-10T14:25:15;11.20;99.90
33093;DHT22;19456;46.104;12.908;2022-12-10T14:27:40;11.20;99.90
33093;DHT22;19456;46.104;12.908;2022-12-10T14:30:14;11.10;99.90
33093;DHT22;19456;46.104;12.908;2022-12-10T14:32:40;11.10;99.90
33093;DHT22;19456;46.104;12.908;2022-12-10T14:38:00;11.00;99.90
33093;DHT22;19456;46.104;12.908;2022-12-10T14:40:29;10.90;99.90
33093;DHT22;19456;46.104;12.908;2022-12-10T14:42:59;10.90;99.90
33093;DHT22;19456;46.104;12.908;2022-12-10T14:45:27;10.80;99.90
33093;DHT22;19456;46.104;12.908;2022-12-10T14:47:56;10.80;99.90
33093;DHT22;19456;46.104;12.908;2022-12-10T14:50:25;10.70;99.90
33093;DHT22;19456;46.104;12.908;2022-12-10T14:52:53;10.70;99.90
33093;DHT22;19456;46.104;12.908;2022-12-10T14:55:19;10.70;99.90
33093;DHT22;19456;46.104;12.908;2022-12-10T14:57:49;10.60;99.90
33093;DHT22;19456;46.104;12.908;2022-12-10T15:00:16;10.60;99.90
33093;DHT22;19456;46.104;12.908;2022-12-10T15:02:47;10.50;99.90
33093;DHT22;19456;46.104;12.908;2022-12-10T15:05:18;10.50;99.90
33093;DHT22;19456;46.104;12.908;2022-12-10T15:08:05;10.40;99.90
33093;DHT22;19456;46.104;12.908;2022-12-10T15:13:37;10.30;99.90
33093;DHT22;19456;46.104;12.908;2022-12-10T15:16:03;10.30;99.90
33093;DHT22;19456;46.104;12.908;2022-12-10T15:18:34;10.20;99.90
33093;DHT22;19456;46.104;12.908;2022-12-10T15:21:11;10.20;99.90
33093;DHT22;19456;46.104;12.908;2022-12-10T15:23:39;10.10;99.90
33093;DHT22;19456;46.104;12.908;2022-12-10T15:28:43;10.10;99.90
33093;DHT22;19456;46.104;12.908;2022-12-10T15:31:13;10.00;99.90
33093;DHT22;19456;46.104;12.908;2022-12-10T15:33:41;10.00;99.90
33093;DHT22;19456;46.104;12.908;2022-12-10T15:38:42;9.90;99.90
33093;DHT22;19456;46.104;12.908;2022-12-10T15:41:21;9.80;99.90
33093;DHT22;19456;46.104;12.908;2022-12-10T15:46:48;9.90;99.90
33093;DHT22;19456;46.104;12.908;2022-12-10T15:49:14;9.80;99.90
33093;DHT22;19456;46.104;12.908;2022-12-10T15:51:40;9.70;99.90
33093;DHT22;19456;46.104;12.908;2022-12-10T15:54:22;9.70;99.90
33093;DHT22;19456;46.104;12.908;2022-12-10T15:56:48;9.70;99.90
33093;DHT22;19456;46.104;12.908;2022-12-10T15:59:14;9.70;99.90
33093;DHT22;19456;46.104;12.908;2022-12-10T16:01:39;9.70;99.90
33093;DHT22;19456;46.104;12.908;2022-12-10T16:04:05;9.80;99.90
33093;DHT22;19456;46.104;12.908;2022-12-10T16:06:30;9.80;99.90
33093;DHT22;19456;46.104;12.908;2022-12-10T16:08:56;9.70;99.90
33093;DHT22;19456;46.104;12.908;2022-12-10T16:11:21;9.60;99.90
33093;DHT22;19456;46.104;12.908;2022-12-10T16:13:48;9.60;99.90
33093;DHT22;19456;46.104;12.908;2022-12-10T16:16:14;9.50;99.90
33093;DHT22;19456;46.104;12.908;2022-12-10T16:18:40;9.40;99.90
33093;DHT22;19456;46.104;12.908;2022-12-10T16:21:06;9.20;99.90
33093;DHT22;19456;46.104;12.908;2022-12-10T16:23:33;9.20;99.90
33093;DHT22;19456;46.104;12.908;2022-12-10T16:25:58;9.20;99.90
33093;DHT22;19456;46.104;12.908;2022-12-10T16:28:24;9.20;99.90
33093;DHT22;19456;46.104;12.908;2022-12-10T16:30:51;9.20;99.90
33093;DHT22;19456;46.104;12.908;2022-12-10T16:33:18;9.20;99.90
33093;DHT22;19456;46.104;12.908;2022-12-10T16:35:44;9.20;99.90
33093;DHT22;19456;46.104;12.908;2022-12-10T16:38:10;9.20;99.90
33093;DHT22;19456;46.104;12.908;2022-12-10T16:40:36;9.20;99.90
33093;DHT22;19456;46.104;12.908;2022-12-10T16:43:01;9.10;99.90
33093;DHT22;19456;46.104;12.908;2022-12-10T16:45:28;9.10;99.90
33093;DHT22;19456;46.104;12.908;2022-12-10T16:47:54;9.10;99.90
33093;DHT22;19456;46.104;12.908;2022-12-10T16:50:20;9.10;99.90
33093;DHT22;19456;46.104;12.908;2022-12-10T16:52:46;9.20;99.90
33093;DHT22;19456;46.104;12.908;2022-12-10T16:55:13;9.10;99.90
33093;DHT22;19456;46.104;12.908;2022-12-10T16:57:40;9.10;99.90
33093;DHT22;19456;46.104;12.908;2022-12-10T17:00:06;9.10;99.90
33093;DHT22;19456;46.104;12.908;2022-12-10T17:02:32;9.10;99.90
33093;DHT22;19456;46.104;12.908;2022-12-10T17:04:58;9.00;99.90
33093;DHT22;19456;46.104;12.908;2022-12-10T17:07:23;9.00;99.90
33093;DHT22;19456;46.104;12.908;2022-12-10T17:09:51;9.00;99.90
33093;DHT22;19456;46.104;12.908;2022-12-10T17:12:17;9.00;99.90
33093;DHT22;19456;46.104;12.908;2022-12-10T17:14:43;9.00;99.90
33093;DHT22;19456;46.104;12.908;2022-12-10T17:17:13;9.00;99.90
33093;DHT22;19456;46.104;12.908;2022-12-10T17:19:39;8.90;99.90
33093;DHT22;19456;46.104;12.908;2022-12-10T17:22:08;9.00;99.90
33093;DHT22;19456;46.104;12.908;2022-12-10T17:24:34;8.90;99.90
33093;DHT22;19456;46.104;12.908;2022-12-10T17:27:05;9.00;99.90
33093;DHT22;19456;46.104;12.908;2022-12-10T17:29:32;9.00;99.90
33093;DHT22;19456;46.104;12.908;2022-12-10T17:31:59;9.00;99.90
33093;DHT22;19456;46.104;12.908;2022-12-10T17:34:24;9.00;99.90
33093;DHT22;19456;46.104;12.908;2022-12-10T17:36:50;9.00;99.90
33093;DHT22;19456;46.104;12.908;2022-12-10T17:39:17;9.00;99.90
33093;DHT22;19456;46.104;12.908;2022-12-10T17:41:43;9.00;99.90
33093;DHT22;19456;46.104;12.908;2022-12-10T17:44:08;9.00;99.90